createdAt,value
2022-08-25T00:01:35.295Z,101778.00
2022-08-25T00:04:03.780Z,101773.00
2022-08-25T00:06:31.417Z,101770.00
2022-08-25T00:08:59.815Z,101772.00
2022-08-25T00:11:29.711Z,101773.00
2022-08-25T00:14:00.952Z,101773.00
2022-08-25T00:16:30.040Z,101775.00
2022-08-25T00:18:59.394Z,101772.00
2022-08-25T00:21:27.972Z,101768.00
2022-08-25T00:23:54.861Z,101778.00
2022-08-25T00:26:21.712Z,101774.00
2022-08-25T00:28:48.618Z,101766.00
2022-08-25T00:31:18.255Z,101763.00
2022-08-25T00:33:45.754Z,101773.00
2022-08-25T00:36:12.595Z,101776.00
2022-08-25T00:38:40.647Z,101765.00
2022-08-25T00:41:11.125Z,101763.00
2022-08-25T00:43:40.949Z,101767.00
2022-08-25T00:46:11.694Z,101767.00
2022-08-25T00:48:40.342Z,101761.00
2022-08-25T00:51:08.078Z,101771.00
2022-08-25T00:53:34.871Z,101770.00
2022-08-25T00:56:01.889Z,101774.00
2022-08-25T00:58:31.065Z,101774.00
2022-08-25T01:00:58.883Z,101777.00
2022-08-25T01:03:33.134Z,101778.00
2022-08-25T01:06:03.154Z,101770.00
2022-08-25T01:08:32.271Z,101773.00
2022-08-25T01:11:02.590Z,101767.00
2022-08-25T01:13:49.239Z,101772.00
2022-08-25T01:16:16.755Z,101772.00
2022-08-25T01:18:56.696Z,101779.00
2022-08-25T01:21:26.388Z,101777.00
2022-08-25T01:23:53.717Z,101774.00
2022-08-25T01:26:30.265Z,101775.00
2022-08-25T01:29:18.439Z,101775.00
2022-08-25T01:31:45.361Z,101771.00
2022-08-25T01:34:13.406Z,101771.00
2022-08-25T01:36:42.519Z,101772.00
2022-08-25T01:39:09.806Z,101772.00
2022-08-25T01:41:54.907Z,101779.00
2022-08-25T01:44:21.713Z,101773.00
2022-08-25T01:46:48.561Z,101772.00
2022-08-25T01:49:15.337Z,101770.00
2022-08-25T01:51:55.724Z,101765.00
2022-08-25T01:54:22.517Z,101771.00
2022-08-25T01:56:49.882Z,101772.00
2022-08-25T01:59:18.933Z,101764.00
2022-08-25T02:01:50.716Z,101764.00
2022-08-25T02:04:17.626Z,101762.00
2022-08-25T02:06:49.804Z,101772.00
2022-08-25T02:09:17.464Z,101760.00
2022-08-25T02:11:46.825Z,101767.00
2022-08-25T02:14:15.249Z,101760.00
2022-08-25T02:16:45.193Z,101774.00
2022-08-25T02:19:12.341Z,101769.00
2022-08-25T02:21:39.478Z,101766.00
2022-08-25T02:24:06.998Z,101767.00
2022-08-25T02:26:33.939Z,101778.00
2022-08-25T02:29:01.257Z,101770.00
2022-08-25T02:31:28.944Z,101777.00
2022-08-25T02:33:56.908Z,101781.00
2022-08-25T02:36:23.946Z,101773.00
2022-08-25T02:38:51.277Z,101786.00
2022-08-25T02:41:20.960Z,101797.00
2022-08-25T02:43:48.672Z,101785.00
2022-08-25T02:46:17.358Z,101787.00
2022-08-25T02:48:45.154Z,101783.00
2022-08-25T02:51:12.473Z,101775.00
2022-08-25T02:53:40.573Z,101771.00
2022-08-25T02:56:09.742Z,101773.00
2022-08-25T02:58:37.369Z,101770.00
2022-08-25T03:01:04.901Z,101761.00
2022-08-25T03:03:34.254Z,101763.00
2022-08-25T03:06:03.295Z,101754.00
2022-08-25T03:08:30.326Z,101756.00
2022-08-25T03:10:57.112Z,101757.00
2022-08-25T03:13:23.936Z,101763.00
2022-08-25T03:15:50.937Z,101758.00
2022-08-25T03:18:18.503Z,101755.00
2022-08-25T03:20:46.269Z,101762.00
2022-08-25T03:23:13.062Z,101763.00
2022-08-25T03:26:00.669Z,101762.00
2022-08-25T03:28:31.287Z,101767.00
2022-08-25T03:31:00.167Z,101754.00
2022-08-25T03:33:30.609Z,101764.00
2022-08-25T03:35:58.255Z,101754.00
2022-08-25T03:38:26.087Z,101750.00
2022-08-25T03:40:53.490Z,101744.00
2022-08-25T03:43:21.271Z,101740.00
2022-08-25T03:45:48.752Z,101736.00
2022-08-25T03:48:17.074Z,101736.00
2022-08-25T03:50:51.135Z,101730.00
2022-08-25T03:53:20.130Z,101734.00
2022-08-25T03:55:47.733Z,101730.00
2022-08-25T03:58:15.095Z,101732.00
2022-08-25T04:00:42.148Z,101727.00
2022-08-25T04:03:09.171Z,101731.00
2022-08-25T04:05:35.987Z,101736.00
2022-08-25T04:08:03.117Z,101748.00
2022-08-25T04:10:30.328Z,101738.00
2022-08-25T04:12:57.241Z,101740.00
2022-08-25T04:15:28.117Z,101740.00
2022-08-25T04:17:58.916Z,101743.00
2022-08-25T04:20:26.466Z,101743.00
2022-08-25T04:22:53.363Z,101742.00
2022-08-25T04:25:20.324Z,101749.00
2022-08-25T04:27:47.082Z,101740.00
2022-08-25T04:30:14.641Z,101747.00
2022-08-25T04:32:41.496Z,101757.00
2022-08-25T04:35:09.111Z,101754.00
2022-08-25T04:37:35.881Z,101761.00
2022-08-25T04:40:03.132Z,101763.00
2022-08-25T04:42:29.966Z,101759.00
2022-08-25T04:44:56.747Z,101761.00
2022-08-25T04:47:23.724Z,101757.00
2022-08-25T04:49:50.967Z,101756.00
2022-08-25T04:52:17.739Z,101769.00
2022-08-25T04:54:44.995Z,101764.00
2022-08-25T04:57:11.840Z,101755.00
2022-08-25T04:59:39.351Z,101759.00
2022-08-25T05:02:06.704Z,101755.00
2022-08-25T05:04:35.875Z,101764.00
2022-08-25T05:07:03.550Z,101771.00
2022-08-25T05:09:32.488Z,101764.00
2022-08-25T05:12:01.506Z,101767.00
2022-08-25T05:14:29.035Z,101775.00
2022-08-25T05:16:56.596Z,101772.00
2022-08-25T05:19:26.886Z,101768.00
2022-08-25T05:21:54.382Z,101770.00
2022-08-25T05:24:22.197Z,101765.00
2022-08-25T05:26:49.267Z,101768.00
2022-08-25T05:29:16.428Z,101760.00
2022-08-25T05:31:48.318Z,101758.00
2022-08-25T05:34:18.790Z,101760.00
2022-08-25T05:36:45.803Z,101758.00
2022-08-25T05:39:12.948Z,101763.00
2022-08-25T05:41:41.599Z,101766.00
2022-08-25T05:44:08.514Z,101763.00
2022-08-25T05:46:35.440Z,101765.00
2022-08-25T05:49:02.280Z,101765.00
2022-08-25T05:51:29.077Z,101759.00
2022-08-25T05:53:55.881Z,101759.00
2022-08-25T05:56:22.662Z,101760.00
2022-08-25T05:58:50.157Z,101755.00
2022-08-25T06:01:47.731Z,101746.00
2022-08-25T06:04:16.187Z,101749.00
2022-08-25T06:06:42.968Z,101753.00
2022-08-25T06:09:10.193Z,101745.00
2022-08-25T06:11:39.711Z,101755.00
2022-08-25T06:14:10.011Z,101757.00
2022-08-25T06:16:38.803Z,101750.00
2022-08-25T06:19:07.412Z,101758.00
2022-08-25T06:21:34.378Z,101766.00
2022-08-25T06:24:01.797Z,101757.00
2022-08-25T06:26:28.676Z,101766.00
2022-08-25T06:28:55.451Z,101770.00
2022-08-25T06:31:22.537Z,101773.00
2022-08-25T06:33:50.653Z,101761.00
2022-08-25T06:36:17.679Z,101759.00
2022-08-25T06:38:44.567Z,101756.00
2022-08-25T06:41:12.494Z,101743.00
2022-08-25T06:43:44.996Z,101745.00
2022-08-25T06:46:17.888Z,101748.00
2022-08-25T06:48:45.145Z,101766.00
2022-08-25T06:51:14.471Z,101769.00
2022-08-25T06:53:42.810Z,101767.00
2022-08-25T06:56:10.653Z,101765.00
2022-08-25T06:58:38.216Z,101777.00
2022-08-25T07:01:09.694Z,101771.00
2022-08-25T07:03:42.400Z,101782.00
2022-08-25T07:06:09.691Z,101774.00
2022-08-25T07:08:37.151Z,101792.00
2022-08-25T07:11:08.034Z,101777.00
2022-08-25T07:13:44.057Z,101787.00
2022-08-25T07:16:15.308Z,101794.00
2022-08-25T07:18:42.321Z,101793.00
2022-08-25T07:21:12.369Z,101789.00
2022-08-25T07:23:40.601Z,101801.00
2022-08-25T07:26:36.238Z,101794.00
2022-08-25T07:29:02.286Z,101814.00
2022-08-25T07:31:30.175Z,101806.00
2022-08-25T07:34:16.382Z,101821.00
2022-08-25T07:36:43.640Z,101815.00
2022-08-25T07:39:10.640Z,101826.00
2022-08-25T07:41:39.850Z,101820.00
2022-08-25T07:44:07.557Z,101833.00
2022-08-25T07:46:34.506Z,101829.00
2022-08-25T07:49:01.815Z,101818.00
2022-08-25T07:51:28.872Z,101822.00
2022-08-25T07:53:56.052Z,101825.00
2022-08-25T07:56:23.566Z,101823.00
2022-08-25T07:58:51.263Z,101827.00
2022-08-25T08:01:23.419Z,101827.00
2022-08-25T08:03:51.627Z,101829.00
2022-08-25T08:06:22.404Z,101818.00
2022-08-25T08:08:50.684Z,101820.00
2022-08-25T08:11:34.489Z,101819.00
2022-08-25T08:14:01.989Z,101830.00
2022-08-25T08:16:30.508Z,101820.00
2022-08-25T08:18:58.829Z,101828.00
2022-08-25T08:21:30.661Z,101822.00
2022-08-25T08:23:59.089Z,101826.00
2022-08-25T08:26:41.947Z,101837.00
2022-08-25T08:29:14.787Z,101810.00
2022-08-25T08:31:48.767Z,101821.00
2022-08-25T08:34:16.615Z,101825.00
2022-08-25T08:36:43.395Z,101822.00
2022-08-25T08:39:12.177Z,101808.00
2022-08-25T08:42:19.150Z,101832.00
2022-08-25T08:45:25.909Z,101840.00
2022-08-25T08:48:16.888Z,101828.00
2022-08-25T08:51:04.599Z,101834.00
2022-08-25T08:53:46.253Z,101811.00
2022-08-25T08:56:23.249Z,101830.00
2022-08-25T08:58:57.334Z,101810.00
2022-08-25T09:01:47.881Z,101807.00
2022-08-25T09:04:35.208Z,101837.00
2022-08-25T09:07:06.946Z,101824.00
2022-08-25T09:09:37.154Z,101848.00
2022-08-25T09:12:23.762Z,101840.00
2022-08-25T09:15:18.268Z,101832.00
2022-08-25T09:18:05.567Z,101831.00
2022-08-25T09:20:43.764Z,101843.00
2022-08-25T09:23:16.591Z,101836.00
2022-08-25T09:26:15.970Z,101820.00
2022-08-25T09:29:00.514Z,101814.00
2022-08-25T09:31:36.472Z,101811.00
2022-08-25T09:34:06.806Z,101799.00
2022-08-25T09:36:37.514Z,101803.00
2022-08-25T09:39:05.997Z,101802.00
2022-08-25T09:41:45.755Z,101780.00
2022-08-25T09:44:24.153Z,101823.00
2022-08-25T09:47:04.055Z,101819.00
2022-08-25T09:49:45.467Z,101815.00
2022-08-25T09:52:33.300Z,101827.00
2022-08-25T09:55:02.485Z,101808.00
2022-08-25T09:57:42.567Z,101807.00
2022-08-25T10:00:16.110Z,101810.00
2022-08-25T10:02:45.237Z,101801.00
2022-08-25T10:05:24.307Z,101808.00
2022-08-25T10:08:00.361Z,101812.00
2022-08-25T10:10:37.798Z,101816.00
2022-08-25T10:13:23.067Z,101809.00
2022-08-25T10:16:20.160Z,101793.00
2022-08-25T10:19:01.978Z,101784.00
2022-08-25T10:21:28.838Z,101771.00
2022-08-25T10:23:58.932Z,101764.00
2022-08-25T10:26:35.239Z,101753.00
2022-08-25T10:29:30.196Z,101738.00
2022-08-25T10:32:15.011Z,101735.00
2022-08-25T10:34:46.996Z,101757.00
2022-08-25T10:37:32.807Z,101764.00
2022-08-25T10:40:23.862Z,101769.00
2022-08-25T10:43:19.223Z,101779.00
2022-08-25T10:45:57.733Z,101781.00
2022-08-25T10:48:46.991Z,101797.00
2022-08-25T10:51:37.406Z,101810.00
2022-08-25T10:54:29.171Z,101807.00
2022-08-25T10:57:00.909Z,101804.00
2022-08-25T10:59:31.704Z,101781.00
2022-08-25T11:02:35.137Z,101774.00
2022-08-25T11:05:06.852Z,101765.00
2022-08-25T11:07:46.987Z,101756.00
2022-08-25T11:10:20.183Z,101761.00
2022-08-25T11:13:00.067Z,101771.00
2022-08-25T11:15:39.716Z,101769.00
2022-08-25T11:18:17.261Z,101781.00
2022-08-25T11:20:59.765Z,101770.00
2022-08-25T11:23:39.805Z,101750.00
2022-08-25T11:26:11.633Z,101747.00
2022-08-25T11:29:11.492Z,101755.00
2022-08-25T11:31:53.595Z,101730.00
2022-08-25T11:34:21.888Z,101740.00
2022-08-25T11:36:59.827Z,101717.00
2022-08-25T11:39:57.658Z,101711.00
2022-08-25T11:42:42.993Z,101708.00
2022-08-25T11:45:42.318Z,101707.00
2022-08-25T11:48:40.825Z,101693.00
2022-08-25T11:51:09.850Z,101671.00
2022-08-25T11:53:42.169Z,101692.00
2022-08-25T11:56:10.448Z,101702.00
2022-08-25T11:58:51.307Z,101714.00
2022-08-25T12:01:40.557Z,101733.00
2022-08-25T12:04:45.036Z,101721.00
2022-08-25T12:07:21.975Z,101709.00
2022-08-25T12:09:48.898Z,101713.00
2022-08-25T12:12:44.098Z,101701.00
2022-08-25T12:15:33.347Z,101721.00
2022-08-25T12:18:18.843Z,101720.00
2022-08-25T12:20:57.847Z,101726.00
2022-08-25T12:24:01.924Z,101712.00
2022-08-25T12:27:01.213Z,101716.00
2022-08-25T12:29:40.783Z,101708.00
2022-08-25T12:32:19.737Z,101710.00
2022-08-25T12:35:12.195Z,101719.00
2022-08-25T12:37:54.231Z,101704.00
2022-08-25T12:40:31.686Z,101713.00
2022-08-25T12:43:09.032Z,101704.00
2022-08-25T12:45:46.697Z,101709.00
2022-08-25T12:48:28.799Z,101712.00
2022-08-25T12:51:12.796Z,101709.00
2022-08-25T12:53:42.635Z,101687.00
2022-08-25T12:56:37.533Z,101695.00
2022-08-25T12:59:22.013Z,101668.00
2022-08-25T13:02:07.278Z,101662.00
2022-08-25T13:04:46.850Z,101660.00
2022-08-25T13:07:41.494Z,101668.00
2022-08-25T13:10:08.224Z,101643.00
2022-08-25T13:13:07.931Z,101638.00
2022-08-25T13:15:44.430Z,101629.00
2022-08-25T13:18:34.855Z,101627.00
2022-08-25T13:21:12.175Z,101617.00
2022-08-25T13:23:41.915Z,101630.00
2022-08-25T13:26:15.096Z,101632.00
2022-08-25T13:28:42.537Z,101627.00
2022-08-25T13:31:22.470Z,101618.00
2022-08-25T13:33:54.881Z,101627.00
2022-08-25T13:36:51.964Z,101636.00
2022-08-25T13:39:38.952Z,101609.00
2022-08-25T13:42:15.768Z,101612.00
2022-08-25T13:44:51.647Z,101604.00
2022-08-25T13:47:44.961Z,101590.00
2022-08-25T13:53:39.253Z,101572.00
2022-08-25T13:56:07.383Z,101558.00
2022-08-25T13:58:38.965Z,101585.00
2022-08-25T14:01:48.703Z,101559.00
2022-08-25T14:04:51.664Z,101548.00
2022-08-25T14:07:20.323Z,101529.00
2022-08-25T14:09:58.974Z,101536.00
2022-08-25T14:12:33.175Z,101539.00
2022-08-25T14:15:07.362Z,101516.00
2022-08-25T14:17:38.343Z,101527.00
2022-08-25T14:20:19.341Z,101506.00
2022-08-25T14:22:46.240Z,101512.00
2022-08-25T14:25:13.362Z,101523.00
2022-08-25T14:28:06.932Z,101528.00
2022-08-25T14:30:34.461Z,101516.00
2022-08-25T14:33:02.522Z,101518.00
2022-08-25T14:35:29.567Z,101530.00
2022-08-25T14:37:58.490Z,101534.00
2022-08-25T14:40:25.357Z,101518.00
2022-08-25T14:42:52.179Z,101519.00
2022-08-25T14:45:19.480Z,101518.00
2022-08-25T14:47:49.736Z,101495.00
2022-08-25T14:50:24.518Z,101493.00
2022-08-25T14:52:52.300Z,101481.00
2022-08-25T14:55:31.555Z,101496.00
2022-08-25T14:58:00.163Z,101489.00
2022-08-25T15:00:28.067Z,101485.00
2022-08-25T15:02:55.205Z,101481.00
2022-08-25T15:05:28.233Z,101472.00
2022-08-25T15:08:14.191Z,101471.00
2022-08-25T15:10:44.979Z,101472.00
2022-08-25T15:13:11.751Z,101462.00
2022-08-25T15:15:52.328Z,101467.00
2022-08-25T15:18:20.931Z,101462.00
2022-08-25T15:20:49.886Z,101464.00
2022-08-25T15:23:18.563Z,101452.00
2022-08-25T15:25:47.297Z,101443.00
2022-08-25T15:28:17.424Z,101447.00
2022-08-25T15:30:45.689Z,101445.00
2022-08-25T15:33:13.767Z,101440.00
2022-08-25T15:35:41.407Z,101426.00
2022-08-25T15:38:08.580Z,101435.00
2022-08-25T15:40:38.973Z,101432.00
2022-08-25T15:43:09.558Z,101434.00
2022-08-25T15:45:38.238Z,101439.00
2022-08-25T15:48:06.908Z,101422.00
2022-08-25T15:50:37.154Z,101417.00
2022-08-25T15:53:08.287Z,101424.00
2022-08-25T15:55:41.068Z,101419.00
2022-08-25T15:58:08.760Z,101416.00
2022-08-25T16:00:37.783Z,101413.00
2022-08-25T16:03:05.210Z,101417.00
2022-08-25T16:05:37.311Z,101409.00
2022-08-25T16:08:04.980Z,101410.00
2022-08-25T16:10:36.327Z,101406.00
2022-08-25T16:13:04.746Z,101405.00
2022-08-25T16:15:32.597Z,101395.00
2022-08-25T16:18:00.633Z,101401.00
2022-08-25T16:20:29.623Z,101381.00
2022-08-25T16:22:59.998Z,101386.00
2022-08-25T16:25:27.454Z,101380.00
2022-08-25T16:27:54.561Z,101384.00
2022-08-25T16:30:21.594Z,101383.00
2022-08-25T16:32:49.198Z,101385.00
2022-08-25T16:35:16.342Z,101389.00
2022-08-25T16:37:43.189Z,101389.00
2022-08-25T16:40:13.566Z,101381.00
2022-08-25T16:42:42.112Z,101379.00
2022-08-25T16:45:09.223Z,101377.00
2022-08-25T16:47:38.088Z,101366.00
2022-08-25T16:50:06.712Z,101357.00
2022-08-25T16:52:52.141Z,101365.00
2022-08-25T16:55:19.119Z,101366.00
2022-08-25T16:57:49.550Z,101359.00
2022-08-25T17:00:19.627Z,101367.00
2022-08-25T17:02:46.484Z,101366.00
2022-08-25T17:05:14.452Z,101362.00
2022-08-25T17:07:41.679Z,101366.00
2022-08-25T17:10:12.441Z,101376.00
2022-08-25T17:12:39.691Z,101371.00
2022-08-25T17:15:07.843Z,101371.00
2022-08-25T17:17:36.419Z,101371.00
2022-08-25T17:20:04.617Z,101360.00
2022-08-25T17:22:31.829Z,101367.00
2022-08-25T17:25:00.725Z,101363.00
2022-08-25T17:27:28.758Z,101360.00
2022-08-25T17:29:55.866Z,101357.00
2022-08-25T17:32:28.935Z,101358.00
2022-08-25T17:34:57.977Z,101361.00
2022-08-25T17:37:25.242Z,101355.00
2022-08-25T17:39:52.814Z,101341.00
2022-08-25T17:42:30.409Z,101347.00
2022-08-25T17:44:58.141Z,101350.00
2022-08-25T17:47:25.151Z,101357.00
2022-08-25T17:49:51.928Z,101350.00
2022-08-25T17:52:22.471Z,101340.00
2022-08-25T17:54:52.895Z,101349.00
2022-08-25T17:57:19.874Z,101348.00
2022-08-25T17:59:48.132Z,101351.00
2022-08-25T18:02:15.025Z,101342.00
2022-08-25T18:04:42.569Z,101348.00
2022-08-25T18:07:10.211Z,101344.00
2022-08-25T18:09:37.034Z,101335.00
2022-08-25T18:12:04.420Z,101336.00
2022-08-25T18:14:31.247Z,101333.00
2022-08-25T18:16:58.114Z,101339.00
2022-08-25T18:19:24.935Z,101339.00
2022-08-25T18:21:51.952Z,101345.00
2022-08-25T18:24:19.438Z,101341.00
2022-08-25T18:26:46.947Z,101337.00
2022-08-25T18:29:14.076Z,101342.00
2022-08-25T18:31:45.832Z,101335.00
2022-08-25T18:34:15.472Z,101345.00
2022-08-25T18:36:42.330Z,101336.00
2022-08-25T18:39:34.061Z,101343.00
2022-08-25T18:42:27.515Z,101339.00
2022-08-25T18:44:58.045Z,101348.00
2022-08-25T18:47:25.539Z,101341.00
2022-08-25T18:49:52.388Z,101345.00
2022-08-25T18:52:21.811Z,101333.00
2022-08-25T18:54:48.805Z,101345.00
2022-08-25T18:57:19.909Z,101342.00
2022-08-25T18:59:47.419Z,101330.00
2022-08-25T19:02:14.758Z,101332.00
2022-08-25T19:04:43.274Z,101331.00
2022-08-25T19:07:12.065Z,101332.00
2022-08-25T19:09:38.853Z,101325.00
2022-08-25T19:12:11.756Z,101322.00
2022-08-25T19:14:49.231Z,101327.00
2022-08-25T19:17:17.149Z,101320.00
2022-08-25T19:19:44.723Z,101313.00
2022-08-25T19:22:38.060Z,101325.00
2022-08-25T19:24:58.895Z,101318.00
2022-08-25T19:27:25.972Z,101326.00
2022-08-25T19:29:53.027Z,101322.00
2022-08-25T19:32:20.198Z,101320.00
2022-08-25T19:34:51.418Z,101322.00
2022-08-25T19:37:18.548Z,101312.00
2022-08-25T19:39:53.176Z,101324.00
2022-08-25T19:42:34.884Z,101316.00
2022-08-25T19:45:08.512Z,101314.00
2022-08-25T19:47:37.648Z,101321.00
2022-08-25T19:50:06.735Z,101314.00
2022-08-25T19:52:34.361Z,101315.00
2022-08-25T19:55:03.612Z,101310.00
2022-08-25T19:57:42.310Z,101310.00
2022-08-25T20:00:23.501Z,101309.00
2022-08-25T20:02:54.188Z,101306.00
2022-08-25T20:05:38.163Z,101296.00
2022-08-25T20:08:08.750Z,101306.00
2022-08-25T20:11:01.033Z,101309.00
2022-08-25T20:13:28.471Z,101310.00
2022-08-25T20:15:59.917Z,101306.00
2022-08-25T20:18:31.844Z,101303.00
2022-08-25T20:21:05.634Z,101303.00
2022-08-25T20:23:51.125Z,101309.00
2022-08-25T20:26:18.056Z,101302.00
2022-08-25T20:28:50.907Z,101307.00
2022-08-25T20:31:24.517Z,101316.00
2022-08-25T20:34:02.860Z,101315.00
2022-08-25T20:36:38.824Z,101303.00
2022-08-25T20:39:20.381Z,101307.00
2022-08-25T20:41:49.004Z,101308.00
2022-08-25T20:44:16.640Z,101301.00
2022-08-25T20:47:03.800Z,101306.00
2022-08-25T20:49:40.307Z,101299.00
2022-08-25T20:52:07.868Z,101303.00
2022-08-25T20:54:35.059Z,101310.00
2022-08-25T20:57:02.525Z,101304.00
2022-08-25T20:59:29.664Z,101295.00
2022-08-25T21:01:56.588Z,101299.00
2022-08-25T21:04:25.478Z,101303.00
2022-08-25T21:06:52.959Z,101299.00
2022-08-25T21:09:22.834Z,101299.00
2022-08-25T21:11:53.101Z,101297.00
2022-08-25T21:14:21.141Z,101289.00
2022-08-25T21:16:48.914Z,101298.00
2022-08-25T21:19:26.276Z,101294.00
2022-08-25T21:21:59.782Z,101296.00
2022-08-25T21:24:28.443Z,101289.00
2022-08-25T21:26:57.073Z,101301.00
2022-08-25T21:29:26.030Z,101298.00
2022-08-25T21:31:58.530Z,101297.00
2022-08-25T21:34:25.925Z,101303.00
2022-08-25T21:36:58.023Z,101299.00
2022-08-25T21:39:27.563Z,101300.00
2022-08-25T21:41:55.466Z,101295.00
2022-08-25T21:44:22.382Z,101295.00
2022-08-25T21:46:54.445Z,101287.00
2022-08-25T21:49:22.458Z,101287.00
2022-08-25T21:51:59.348Z,101296.00
2022-08-25T21:54:28.808Z,101300.00
2022-08-25T21:57:01.296Z,101294.00
2022-08-25T21:59:30.387Z,101297.00
2022-08-25T22:01:59.429Z,101287.00
2022-08-25T22:04:27.942Z,101282.00
2022-08-25T22:06:55.811Z,101288.00
2022-08-25T22:09:25.191Z,101293.00
2022-08-25T22:11:54.672Z,101276.00
2022-08-25T22:14:23.422Z,101278.00
2022-08-25T22:16:52.012Z,101283.00
2022-08-25T22:19:18.987Z,101284.00
2022-08-25T22:21:48.577Z,101278.00
2022-08-25T22:24:15.396Z,101278.00
2022-08-25T22:26:43.054Z,101276.00
2022-08-25T22:29:14.556Z,101272.00
2022-08-25T22:32:02.145Z,101277.00
2022-08-25T22:34:34.591Z,101279.00
2022-08-25T22:37:03.788Z,101274.00
2022-08-25T22:39:31.618Z,101273.00
2022-08-25T22:41:58.981Z,101269.00
2022-08-25T22:44:26.344Z,101274.00
2022-08-25T22:46:53.705Z,101279.00
2022-08-25T22:49:21.746Z,101268.00
2022-08-25T22:51:48.897Z,101270.00
2022-08-25T22:54:15.962Z,101265.00
2022-08-25T22:56:43.351Z,101272.00
2022-08-25T22:59:12.573Z,101256.00
2022-08-25T23:01:39.913Z,101264.00
2022-08-25T23:04:07.836Z,101264.00
2022-08-25T23:06:35.261Z,101263.00
2022-08-25T23:09:05.228Z,101256.00
2022-08-25T23:11:32.336Z,101257.00
2022-08-25T23:14:05.408Z,101257.00
2022-08-25T23:16:33.034Z,101252.00
2022-08-25T23:19:00.544Z,101248.00
2022-08-25T23:21:46.908Z,101246.00
2022-08-25T23:24:14.934Z,101246.00
2022-08-25T23:26:56.017Z,101248.00
2022-08-25T23:29:23.398Z,101235.00
2022-08-25T23:31:52.222Z,101229.00
2022-08-25T23:34:21.671Z,101223.00
2022-08-25T23:36:49.040Z,101230.00
2022-08-25T23:39:15.896Z,101224.00
2022-08-25T23:41:42.867Z,101225.00
2022-08-25T23:44:11.652Z,101217.00
2022-08-25T23:46:39.389Z,101220.00
2022-08-25T23:49:08.233Z,101215.00
2022-08-25T23:51:37.992Z,101210.00
2022-08-25T23:54:09.591Z,101219.00
2022-08-25T23:56:44.790Z,101203.00
2022-08-25T23:59:24.041Z,101203.00
